Time;durP1;ratioP1;P1;durP2;ratioP2;P2;SDS_P1;SDS_P2;PMS_P1;PMS_P2;Temp;Humidity;BMP_temperature;BMP_pressure;BME280_temperature;BME280_humidity;BME280_pressure;Samples;Min_cycle;Max_cycle;Signal;HPM_P1;HPM_P2
2022/10/01 00:00:08;;;;;;;36.50;32.60;;;;;;;9.86;72.30;100222.83;110500;1253;21954;-77
2022/10/01 00:03:06;;;;;;;35.90;32.20;;;;;;;9.84;72.19;100221.70;110447;1255;21959;-78
2022/10/01 00:05:48;;;;;;;37.80;29.90;;;;;;;9.83;72.13;100217.38;110694;1253;22062;-79
2022/10/01 00:08:36;;;;;;;34.60;30.20;;;;;;;9.76;72.11;100213.09;110528;1253;22996;-78
2022/10/01 00:11:20;;;;;;;34.20;29.90;;;;;;;9.69;72.14;100218.92;110126;1253;21964;-78
2022/10/01 00:14:32;;;;;;;38.00;30.90;;;;;;;9.61;72.24;100223.02;110573;1250;22071;-79
2022/10/01 00:17:57;;;;;;;37.60;33.60;;;;;;;9.61;72.52;100220.42;109825;1260;23051;-78
2022/10/01 00:20:56;;;;;;;40.50;36.30;;;;;;;9.60;72.70;100221.69;110247;1257;21954;-78
2022/10/01 00:24:39;;;;;;;;;;;;;;;;;;;;;
2022/10/01 00:28:16;;;;;;;35.00;31.30;;;;;;;9.50;72.86;100223.75;109141;1267;21978;-79
2022/10/01 00:31:23;;;;;;;35.50;31.70;;;;;;;9.46;72.87;100222.17;108817;1270;23003;-78
2022/10/01 00:34:15;;;;;;;34.60;31.10;;;;;;;9.43;72.99;100223.31;108955;1267;21987;-78
2022/10/01 00:37:05;;;;;;;33.70;30.30;;;;;;;9.44;73.23;100221.73;109635;1261;23055;-77
2022/10/01 00:39:51;;;;;;;33.60;30.10;;;;;;;9.45;73.23;100222.40;108693;1270;21991;-78
2022/10/01 00:42:31;;;;;;;33.90;30.20;;;;;;;9.43;73.24;100221.75;108860;1267;22284;-77
2022/10/01 00:45:33;;;;;;;36.80;32.60;;;;;;;9.40;73.22;100219.43;108535;1270;22080;-77
2022/10/01 00:48:12;;;;;;;32.30;29.10;;;;;;;9.38;73.34;100221.58;108696;1270;23746;-77
2022/10/01 00:51:46;;;;;;;;;;;;;;;;;;;;;
2022/10/01 00:54:56;;;;;;;34.40;30.70;;;;;;;9.28;73.42;100218.62;109283;1264;23048;-78
2022/10/01 00:57:59;;;;;;;;;;;;;;;;;;;;;
2022/10/01 01:01:23;;;;;;;32.70;29.40;;;;;;;9.24;73.82;100219.48;109369;1264;21983;-77
2022/10/01 01:04:24;;;;;;;31.80;27.60;;;;;;;9.25;73.84;100220.62;109509;1263;23678;-77
2022/10/01 01:07:51;;;;;;;33.60;29.50;;;;;;;9.21;73.68;100219.04;109240;1264;23045;-77
2022/10/01 01:11:40;;;;;;;30.50;27.50;;;;;;;9.13;73.76;100217.94;109025;1270;23068;-77
2022/10/01 01:14:38;;;;;;;30.20;27.20;;;;;;;9.05;73.79;100214.38;108933;1268;24332;-78
2022/10/01 01:18:42;;;;;;;;;;;;;;;;;;;;;
2022/10/01 01:21:50;;;;;;;31.30;26.90;;;;;;;8.91;74.33;100204.41;108655;1273;22324;-77
2022/10/01 01:25:10;;;;;;;30.90;27.90;;;;;;;8.87;74.40;100201.77;108681;1273;23090;-77
2022/10/01 01:28:36;;;;;;;31.10;27.80;;;;;;;8.83;74.30;100198.45;108519;1272;22061;-77
2022/10/01 01:31:49;;;;;;;;;;;;;;;;;;;;;
2022/10/01 01:34:52;;;;;;;31.50;28.30;;;;;;;8.74;74.54;100192.33;108677;1267;23734;-77
2022/10/01 01:38:27;;;;;;;34.10;28.30;;;;;;;8.69;74.62;100196.81;109013;1267;23380;-77
2022/10/01 01:41:25;;;;;;;28.10;25.20;;;;;;;8.67;74.77;100198.44;108799;1270;22053;-77
2022/10/01 01:45:14;;;;;;;32.30;28.60;;;;;;;8.61;74.97;100198.27;108818;1270;21991;-77
2022/10/01 01:48:16;;;;;;;31.00;27.80;;;;;;;8.57;74.97;100194.77;108722;1272;23623;-77
2022/10/01 01:51:16;;;;;;;33.30;28.30;;;;;;;8.58;75.03;100193.16;108742;1270;21987;-76
2022/10/01 01:53:57;;;;;;;;;;;;;;;;;;;;;
2022/10/01 01:56:53;;;;;;;31.00;27.80;;;;;;;8.63;75.00;100193.02;108541;1272;21984;-77
2022/10/01 02:00:11;;;;;;;30.20;27.00;;;;;;;8.62;75.03;100194.80;108509;1272;21985;-78
2022/10/01 02:03:27;;;;;;;31.10;27.70;;;;;;;8.60;75.19;100191.55;108444;1272;22137;-78
2022/10/01 02:06:54;;;;;;;32.20;28.90;;;;;;;8.60;75.24;100190.86;108940;1264;21974;-77
2022/10/01 02:10:04;;;;;;;32.60;29.20;;;;;;;8.59;75.17;100190.54;109045;1267;21949;-76
2022/10/01 02:13:24;;;;;;;31.20;28.20;;;;;;;8.56;75.18;100191.85;109195;1264;22767;-77
2022/10/01 02:16:38;;;;;;;32.40;27.80;;;;;;;8.52;75.23;100191.28;109924;1259;24552;-76
2022/10/01 02:20:14;;;;;;;30.30;26.90;;;;;;;8.49;75.37;100192.43;110497;1253;23032;-76
2022/10/01 02:23:39;;;;;;;;;;;;;;;;;;;;;
2022/10/01 02:26:52;;;;;;;28.10;25.30;;;;;;;8.48;75.53;100181.72;110417;1256;22826;-76
2022/10/01 02:30:09;;;;;;;;;;;;;;;8.47;75.33;100179.65;110109;1256;21945;-77
2022/10/01 02:33:10;;;;;;;32.10;27.50;;;;;;;8.39;75.40;100180.58;109638;1261;23761;-76
2022/10/01 02:35:54;;;;;;;28.10;25.50;;;;;;;8.40;75.46;100172.23;108961;1267;21963;-77
2022/10/01 02:38:49;;;;;;;29.80;26.70;;;;;;;8.41;75.22;100169.24;108834;1270;22086;-77
2022/10/01 02:41:35;;;;;;;28.80;25.80;;;;;;;8.40;75.21;100171.36;109139;1267;23065;-77
2022/10/01 02:44:36;;;;;;;36.40;28.10;;;;;;;8.37;75.12;100167.29;109177;1264;21974;-77
2022/10/01 02:47:53;;;;;;;28.10;25.40;;;;;;;8.34;75.26;100157.84;108706;1270;21992;-75
2022/10/01 02:51:36;;;;;;;30.90;27.50;;;;;;;8.34;75.43;100154.52;108478;1271;21988;-77
2022/10/01 02:55:05;;;;;;;32.10;29.00;;;;;;;8.31;75.30;100152.73;108339;1276;22101;-78
2022/10/01 02:58:05;;;;;;;31.70;28.80;;;;;;;8.20;75.10;100147.52;108290;1276;23708;-78
2022/10/01 03:01:02;;;;;;;;;;;;;;;;;;;;;
2022/10/01 03:04:31;;;;;;;40.80;36.80;;;;;;;8.12;75.40;100142.40;108718;1281;22024;-77
2022/10/01 03:11:46;;;;;;;32.30;29.20;;;;;;;8.06;75.57;100132.71;108236;1288;23649;-78
2022/10/01 03:14:41;;;;;;;;;;;;;;;;;;;;;
2022/10/01 03:29:41;;;;;;;36.30;32.50;;;;;;;8.12;75.50;100128.71;111743;1256;22954;31
2022/10/01 03:32:44;;;;;;;35.40;31.70;;;;;;;8.09;75.33;100129.14;108895;1267;22002;-78
2022/10/01 03:35:41;;;;;;;32.20;28.80;;;;;;;8.04;75.45;100126.54;108890;1267;22284;-77
2022/10/01 03:38:38;;;;;;;34.70;31.20;;;;;;;7.98;75.44;100130.17;108956;1266;22276;-77
2022/10/01 03:41:29;;;;;;;32.80;29.40;;;;;;;7.92;75.47;100128.45;108818;1269;22274;-77
2022/10/01 03:44:42;;;;;;;32.50;29.30;;;;;;;7.86;75.75;100126.89;109191;1267;22055;-77
2022/10/01 03:47:42;;;;;;;32.40;29.20;;;;;;;7.82;75.90;100130.86;108746;1266;23069;-76
2022/10/01 03:50:15;;;;;;;32.10;28.80;;;;;;;7.81;75.98;100134.34;108874;1267;24358;-76
2022/10/01 03:52:59;;;;;;;32.00;28.90;;;;;;;7.80;75.99;100135.77;108812;1267;23851;-76
2022/10/01 03:56:33;;;;;;;31.50;28.10;;;;;;;7.76;76.23;100132.56;108758;1267;22450;-77
2022/10/01 04:00:02;;;;;;;35.20;31.40;;;;;;;7.72;76.55;100127.85;108616;1272;22129;-77
2022/10/01 04:03:52;;;;;;;;;;;;;;;;;;;;;
2022/10/01 04:07:29;;;;;;;43.80;30.20;;;;;;;7.68;76.86;100123.29;107785;1283;23633;-78
2022/10/01 04:10:44;;;;;;;;;;;;;;;;;;;;;
2022/10/01 04:14:13;;;;;;;;;;;;;;;;;;;;;
2022/10/01 04:17:36;;;;;;;57.30;29.60;;;;;;;7.68;77.21;100119.48;107774;1283;22061;-77
2022/10/01 04:20:55;;;;;;;58.10;29.40;;;;;;;7.70;77.15;100113.71;107925;1283;22011;-77
2022/10/01 04:24:37;;;;;;;;;;;;;;;;;;;;;
2022/10/01 04:31:57;;;;;;;;;;;;;;;;;;;;;
2022/10/01 04:35:06;;;;;;;;;;;;;;;;;;;;;
2022/10/01 04:38:25;;;;;;;;;;;;;;;;;;;;;
2022/10/01 04:41:25;;;;;;;;;;;;;;;;;;;;;
2022/10/01 04:44:23;;;;;;;54.10;32.90;;;;;;;7.70;77.64;100091.86;108474;1272;22758;-77
2022/10/01 04:47:20;;;;;;;45.70;31.00;;;;;;;7.70;77.63;100097.91;108683;1272;23079;-76
2022/10/01 04:50:33;;;;;;;41.20;33.80;;;;;;;7.69;77.75;100099.33;108685;1272;21993;-77
2022/10/01 04:53:18;;;;;;;46.80;32.40;;;;;;;7.74;77.86;100101.98;108517;1272;23097;-77
2022/10/01 04:56:22;;;;;;;44.70;32.30;;;;;;;7.74;77.74;100103.02;108395;1275;22006;-77
2022/10/01 04:59:24;;;;;;;48.40;33.30;;;;;;;7.76;77.78;100105.18;107450;1287;22872;-78
2022/10/01 05:02:17;;;;;;;42.90;32.10;;;;;;;7.80;77.99;100104.55;107553;1284;22014;-77
2022/10/01 05:05:43;;;;;;;;;;;;;;;;;;;;;
2022/10/01 05:09:12;;;;;;;46.90;32.50;;;;;;;7.80;78.02;100104.73;107116;1292;22020;-79
2022/10/01 05:12:45;;;;;;;42.90;34.90;;;;;;;7.79;78.06;100106.66;107000;1292;22020;-75
2022/10/01 05:15:34;;;;;;;41.30;36.80;;;;;;;7.80;77.98;100108.70;107169;1290;22251;-76
2022/10/01 05:18:16;;;;;;;47.10;37.10;;;;;;;7.80;77.96;100106.97;107501;1287;22021;-76
2022/10/01 05:20:49;;;;;;;43.40;32.20;;;;;;;7.80;78.12;100108.69;107488;1287;21986;-76
2022/10/01 05:23:21;;;;;;;39.30;31.50;;;;;;;7.86;78.32;100109.77;107460;1287;23537;-77
2022/10/01 05:25:54;;;;;;;35.90;32.20;;;;;;;7.88;78.21;100111.09;107404;1283;23185;-76
2022/10/01 05:28:25;;;;;;;36.80;29.90;;;;;;;7.89;78.19;100110.88;108001;1281;23799;-75
2022/10/01 05:31:00;;;;;;;34.10;30.40;;;;;;;7.91;78.32;100107.86;108077;1276;22118;-76
2022/10/01 05:33:31;;;;;;;31.80;28.60;;;;;;;7.96;78.44;100110.84;108418;1272;22000;-76
2022/10/01 05:36:01;;;;;;;32.50;29.10;;;;;;;7.99;78.38;100112.30;108483;1272;22001;-76
2022/10/01 05:38:36;;;;;;;36.10;28.90;;;;;;;8.00;78.33;100112.09;108546;1267;23994;-76
2022/10/01 05:41:08;;;;;;;34.30;30.80;;;;;;;8.03;78.40;100112.02;109033;1266;23048;-79
2022/10/01 05:43:42;;;;;;;34.10;30.50;;;;;;;8.06;78.39;100110.70;108873;1266;21995;-76
2022/10/01 05:46:12;;;;;;;39.00;29.80;;;;;;;8.08;78.40;100108.55;108788;1267;22012;-76
2022/10/01 05:48:41;;;;;;;34.20;31.00;;;;;;;8.10;78.27;100107.44;108720;1273;22983;-75
2022/10/01 05:51:12;;;;;;;35.10;31.60;;;;;;;8.14;78.53;100104.55;108472;1270;22506;-76
2022/10/01 05:54:18;;;;;;;53.30;47.90;;;;;;;8.20;78.57;100100.90;108525;1272;22494;-77
2022/10/01 05:57:10;;;;;;;61.10;54.80;;;;;;;8.22;78.43;100098.22;108669;1270;21994;-78
2022/10/01 06:00:10;;;;;;;53.40;43.20;;;;;;;8.26;78.62;100099.84;108357;1275;22094;-76
2022/10/01 06:02:52;;;;;;;50.50;45.10;;;;;;;8.28;78.47;100098.73;108160;1279;22033;-77
2022/10/01 06:05:24;;;;;;;43.20;35.50;;;;;;;8.33;78.60;100102.90;108072;1278;21990;-77
2022/10/01 06:08:06;;;;;;;38.90;34.80;;;;;;;8.37;78.51;100104.16;108076;1275;22243;-80
2022/10/01 06:12:01;;;;;;;40.10;32.80;;;;;;;8.39;78.69;100101.33;108273;1276;23138;-79
2022/10/01 06:14:51;;;;;;;37.30;33.30;;;;;;;8.42;78.91;100101.08;108452;1276;24073;-79
2022/10/01 06:18:15;;;;;;;;;;;;;;;;;;;;;
2022/10/01 06:21:09;;;;;;;;;;;;;;;;;;;;;
2022/10/01 06:24:22;;;;;;;;;;;;;;;;;;;;;
2022/10/01 06:28:47;;;;;;;47.30;37.80;;;;;;;8.66;78.88;100108.45;108205;1278;23099;-79
2022/10/01 06:32:23;;;;;;;;;;;;;;;;;;;;;
2022/10/01 06:36:23;;;;;;;37.50;32.60;;;;;;;8.69;78.83;100099.66;108204;1278;23640;-78
2022/10/01 06:39:50;;;;;;;;;;;;;;;;;;;;;
2022/10/01 06:44:01;;;;;;;47.00;42.10;;;;;;;8.83;79.20;100101.63;107799;1283;22000;-78
2022/10/01 06:47:01;;;;;;;;;;;;;;;;;;;;;
2022/10/01 06:50:07;;;;;;;37.70;33.80;;;;;;;9.07;79.15;100104.60;108031;1281;22117;-78
2022/10/01 06:53:39;;;;;;;;;;;;;;;;;;;;;
2022/10/01 06:57:07;;;;;;;;;;;;;;;;;;;;;
2022/10/01 07:00:56;;;;;;;41.00;36.70;;;;;;;9.31;78.92;100098.00;108190;1276;22438;-78
2022/10/01 07:04:20;;;;;;;;;;;;;;;;;;;;;
2022/10/01 07:07:53;;;;;;;42.30;34.90;;;;;;;9.44;78.91;100089.69;108396;1275;21998;-77
2022/10/01 07:11:05;;;;;;;48.90;43.80;;;;;;;9.50;78.64;100082.55;108425;1275;22000;-77
2022/10/01 07:13:56;;;;;;;;;;;;;;;;;;;;;
2022/10/01 07:17:19;;;;;;;41.00;36.70;;;;;;;9.57;78.39;100078.80;108364;1276;22007;-78
2022/10/01 07:20:16;;;;;;;38.40;34.50;;;;;;;9.64;78.57;100078.04;107886;1283;22781;-78
2022/10/01 07:23:03;;;;;;;39.40;35.50;;;;;;;9.74;78.74;100075.52;107911;1284;22119;-78
2022/10/01 07:25:46;;;;;;;44.40;40.00;;;;;;;9.87;78.72;100075.73;107671;1284;22662;-77
2022/10/01 07:28:44;;;;;;;43.10;38.80;;;;;;;9.98;78.30;100070.78;107647;1284;23635;-77
2022/10/01 07:32:14;;;;;;;45.60;41.00;;;;;;;10.07;78.33;100066.07;107773;1284;23707;-77
2022/10/01 07:35:25;;;;;;;46.70;41.90;;;;;;;10.12;78.09;100066.05;108132;1276;22000;-78
2022/10/01 07:38:46;;;;;;;49.50;44.70;;;;;;;10.12;77.71;100059.60;108305;1278;21987;-78
2022/10/01 07:42:06;;;;;;;55.40;50.10;;;;;;;10.14;77.56;100058.52;108312;1277;21992;-78
2022/10/01 07:44:55;;;;;;;49.10;44.30;;;;;;;10.20;77.52;100056.88;108345;1277;22491;-78
2022/10/01 07:47:58;;;;;;;51.80;46.70;;;;;;;10.26;77.58;100053.67;108369;1278;23836;-77
2022/10/01 07:51:06;;;;;;;45.30;40.80;;;;;;;10.31;77.29;100052.40;108368;1276;22072;-78
2022/10/01 07:53:58;;;;;;;51.00;46.10;;;;;;;10.35;77.25;100055.05;108002;1283;22051;-78
2022/10/01 07:56:43;;;;;;;48.30;43.70;;;;;;;10.43;77.11;100058.05;108086;1275;22005;-78
2022/10/01 07:59:59;;;;;;;;;;;;;;;;;;;;;
2022/10/01 08:02:52;;;;;;;48.90;44.10;;;;;;;10.57;77.27;100049.08;108148;1280;23165;-77
2022/10/01 08:06:16;;;;;;;42.70;38.20;;;;;;;10.73;77.22;100049.61;108072;1280;23628;-77
2022/10/01 08:09:36;;;;;;;;;;;;;;;;;;;;;
2022/10/01 08:13:13;;;;;;;47.50;42.80;;;;;;;11.08;76.99;100037.63;108512;1274;21992;-77
2022/10/01 08:16:16;;;;;;;48.40;43.50;;;;;;;11.18;76.65;100037.40;108389;1273;23721;-77
2022/10/01 08:19:45;;;;;;;;;;;;;;;;;;;;;
2022/10/01 08:22:31;;;;;;;47.30;42.40;;;;;;;11.33;75.80;100035.11;108034;1275;21992;-77
2022/10/01 08:25:11;;;;;;;48.10;43.20;;;;;;;11.38;75.26;100032.30;108384;1275;21982;-76
2022/10/01 08:27:44;;;;;;;44.50;40.10;;;;;;;11.44;75.15;100033.92;108395;1275;22880;-77
2022/10/01 08:30:17;;;;;;;42.60;38.40;;;;;;;11.53;75.08;100033.20;108454;1275;22000;-78
2022/10/01 08:33:00;;;;;;;43.40;39.00;;;;;;;11.61;74.86;100034.89;108452;1275;24567;-79
2022/10/01 08:35:34;;;;;;;41.30;37.30;;;;;;;11.70;74.49;100030.27;108403;1275;22032;-77
2022/10/01 08:38:09;;;;;;;41.80;37.70;;;;;;;11.82;74.76;100023.26;108779;1269;24331;-77
2022/10/01 08:41:16;;;;;;;44.20;39.70;;;;;;;11.98;74.77;100020.42;108339;1275;22002;-78
2022/10/01 08:43:52;;;;;;;43.60;39.40;;;;;;;12.14;74.32;100024.51;108469;1275;22981;-78
2022/10/01 08:46:28;;;;;;;44.00;39.40;;;;;;;12.33;74.21;100018.00;108067;1279;22068;-77
2022/10/01 08:49:22;;;;;;;42.70;38.40;;;;;;;12.57;74.37;100015.17;108148;1280;24377;-77
2022/10/01 08:52:04;;;;;;;40.90;36.70;;;;;;;13.01;74.02;100010.65;108040;1280;23199;-77
2022/10/01 08:54:47;;;;;;;42.60;37.30;;;;;;;13.29;72.73;100003.93;108103;1280;21971;-77
2022/10/01 08:57:24;;;;;;;38.70;34.80;;;;;;;13.52;72.07;99998.14;107999;1281;22023;-76
2022/10/01 09:00:18;;;;;;;36.60;32.90;;;;;;;13.82;71.22;99994.20;108459;1274;22362;-78
2022/10/01 09:02:51;;;;;;;35.90;32.50;;;;;;;14.01;68.63;99991.19;108420;1273;21998;-78
2022/10/01 09:06:05;;;;;;;36.80;33.30;;;;;;;14.10;68.02;99991.85;108701;1269;23041;-78
2022/10/01 09:09:02;;;;;;;35.20;32.00;;;;;;;14.24;67.70;99985.30;108981;1269;22053;-76
2022/10/01 09:12:22;;;;;;;37.20;33.50;;;;;;;14.34;67.03;99973.85;108971;1269;22106;-77
2022/10/01 09:15:19;;;;;;;38.00;34.00;;;;;;;14.44;66.81;99960.48;108927;1272;22311;-77
2022/10/01 09:19:05;;;;;;;33.30;30.10;;;;;;;14.57;66.47;99953.56;108713;1272;22000;-77
2022/10/01 09:22:38;;;;;;;34.00;30.60;;;;;;;14.81;66.39;99947.55;108422;1276;22036;-77
2022/10/01 09:25:09;;;;;;;34.00;30.60;;;;;;;15.05;65.30;99943.79;107248;1290;22129;-78
2022/10/01 09:27:38;;;;;;;30.50;27.40;;;;;;;15.29;65.58;99934.38;107357;1290;23071;-78
2022/10/01 09:30:36;;;;;;;31.80;28.80;;;;;;;15.59;65.36;99933.17;107299;1290;23170;-77
2022/10/01 09:33:19;;;;;;;34.40;31.20;;;;;;;15.94;64.51;99931.23;107205;1289;23749;-77
2022/10/01 09:36:13;;;;;;;34.30;30.80;;;;;;;16.20;62.95;99924.25;107378;1289;23101;-78
2022/10/01 09:39:34;;;;;;;29.40;26.70;;;;;;;16.39;62.07;99918.03;107509;1287;22470;-76
2022/10/01 09:42:03;;;;;;;26.80;24.30;;;;;;;16.61;61.34;99911.06;107863;1287;22035;-76
2022/10/01 09:44:36;;;;;;;26.10;23.70;;;;;;;16.73;59.86;99906.70;107015;1289;950742;-77
2022/10/01 09:47:20;;;;;;;25.00;22.70;;;;;;;16.90;59.41;99905.56;107408;1287;23871;-77
2022/10/01 09:49:51;;;;;;;26.50;24.00;;;;;;;17.12;58.86;99899.55;107170;1290;23116;-78
2022/10/01 09:52:33;;;;;;;25.80;23.20;;;;;;;17.44;58.92;99901.32;107194;1292;22034;-77
2022/10/01 09:55:40;;;;;;;24.90;22.60;;;;;;;17.82;57.73;99903.77;107331;1290;22521;-78
2022/10/01 09:58:19;;;;;;;28.90;25.90;;;;;;;18.16;56.68;99906.13;107477;1287;22084;-77
2022/10/01 10:00:54;;;;;;;23.80;21.50;;;;;;;18.36;55.59;99903.55;107543;1281;23458;-77
2022/10/01 10:03:30;;;;;;;24.90;22.60;;;;;;;18.58;54.69;99901.85;108842;1272;22378;-76
2022/10/01 10:06:00;;;;;;;25.10;22.80;;;;;;;18.70;53.71;99900.17;108631;1273;22445;-77
2022/10/01 10:08:40;;;;;;;22.10;20.00;;;;;;;18.64;53.21;99889.80;108778;1267;21979;-76
2022/10/01 10:11:25;;;;;;;24.10;20.60;;;;;;;18.51;53.24;99896.07;108964;1267;23681;-77
2022/10/01 10:14:03;;;;;;;20.40;18.40;;;;;;;18.65;53.55;99890.67;108942;1269;21990;-77
2022/10/01 10:16:46;;;;;;;21.40;19.30;;;;;;;18.98;53.34;99884.58;108875;1267;23781;-77
2022/10/01 10:19:27;;;;;;;22.10;20.00;;;;;;;19.23;51.75;99882.02;108508;1272;23152;-78
2022/10/01 10:22:09;;;;;;;22.80;20.60;;;;;;;19.09;51.21;99882.19;108595;1273;21999;-77
2022/10/01 10:24:44;;;;;;;23.30;20.80;;;;;;;19.12;52.03;99878.20;108474;1275;23094;-77
2022/10/01 10:27:53;;;;;;;22.70;20.40;;;;;;;19.18;51.61;99869.77;108509;1272;22033;-78
2022/10/01 10:30:28;;;;;;;20.30;18.10;;;;;;;19.19;51.82;99869.02;108635;1272;21991;-74
2022/10/01 10:33:04;;;;;;;20.60;18.70;;;;;;;19.16;50.75;99866.95;108470;1273;21975;-78
2022/10/01 10:35:34;;;;;;;21.60;18.90;;;;;;;18.91;50.37;99860.82;108787;1272;23637;-77
2022/10/01 10:38:24;;;;;;;21.60;19.40;;;;;;;18.64;50.85;99850.77;108737;1267;22887;-76
2022/10/01 10:40:53;;;;;;;20.00;18.10;;;;;;;18.28;50.92;99846.73;108809;1267;21989;-78
2022/10/01 10:43:29;;;;;;;19.20;17.40;;;;;;;17.99;51.54;99840.39;108884;1267;22008;-77
2022/10/01 10:46:07;;;;;;;20.30;18.50;;;;;;;17.77;51.87;99833.58;108853;1269;23008;-77
2022/10/01 10:48:48;;;;;;;18.90;17.10;;;;;;;17.60;52.12;99829.03;108904;1269;21997;-77
2022/10/01 10:51:17;;;;;;;20.20;18.40;;;;;;;17.40;52.51;99827.34;108822;1267;22132;-77
2022/10/01 10:53:52;;;;;;;18.90;17.20;;;;;;;17.35;53.61;99822.60;108512;1272;24250;-78
2022/10/01 10:56:27;;;;;;;18.80;16.80;;;;;;;17.41;53.95;99818.19;108490;1272;21990;-77
2022/10/01 10:59:07;;;;;;;18.70;17.00;;;;;;;17.40;53.60;99813.86;108545;1273;23619;-77
2022/10/01 11:01:42;;;;;;;20.10;18.30;;;;;;;17.30;53.47;99807.66;108471;1272;23639;-78
2022/10/01 11:04:31;;;;;;;21.70;19.50;;;;;;;17.27;53.83;99801.09;108403;1275;22099;-77
2022/10/01 11:07:03;;;;;;;20.20;18.40;;;;;;;17.27;53.86;99792.82;108301;1275;22004;-77
2022/10/01 11:10:54;;;;;;;25.30;22.90;;;;;;;17.26;53.51;99793.23;108468;1275;23084;-76
2022/10/01 11:13:41;;;;;;;26.10;21.70;;;;;;;17.12;53.53;99788.81;107587;1289;24498;-77
2022/10/01 11:17:28;;;;;;;22.00;19.80;;;;;;;17.10;53.81;99781.75;107461;1289;23105;-77
2022/10/01 11:20:26;;;;;;;24.00;21.50;;;;;;;17.17;53.54;99775.45;107379;1287;544030;-77
2022/10/01 11:23:32;;;;;;;17.90;16.30;;;;;;;17.18;53.46;99770.81;109786;1262;23597;-76
2022/10/01 11:26:18;;;;;;;24.20;21.80;;;;;;;17.11;53.18;99770.26;109468;1262;22333;-76
2022/10/01 11:29:00;;;;;;;19.70;17.90;;;;;;;17.02;53.16;99764.61;109632;1262;21966;-77
2022/10/01 11:32:28;;;;;;;22.70;20.50;;;;;;;16.92;53.56;99759.52;109545;1262;23186;-77
2022/10/01 11:35:41;;;;;;;19.40;17.40;;;;;;;16.86;53.99;99758.75;108200;1267;1176746;-78
2022/10/01 11:38:49;;;;;;;19.80;17.80;;;;;;;16.81;54.12;99757.54;108713;1273;22067;-77
2022/10/01 11:41:41;;;;;;;18.70;17.00;;;;;;;16.76;54.25;99751.19;109664;1263;23779;-77
2022/10/01 11:44:40;;;;;;;18.30;16.60;;;;;;;16.73;54.16;99753.33;109724;1260;21992;-77
2022/10/01 11:47:32;;;;;;;19.60;17.60;;;;;;;16.68;54.18;99748.58;109867;1261;23704;-78
2022/10/01 11:50:25;;;;;;;17.20;15.40;;;;;;;16.55;54.11;99752.13;109594;1261;23754;-76
2022/10/01 11:53:13;;;;;;;19.80;17.80;;;;;;;16.47;54.41;99749.95;109942;1261;23610;-77
2022/10/01 11:59:19;;;;;;;20.40;18.30;;;;;;;16.41;54.31;99737.70;109851;1260;21987;-83
2022/10/01 12:02:18;;;;;;;19.70;17.70;;;;;;;16.36;54.47;99736.28;109559;1263;21951;-76
2022/10/01 12:05:19;;;;;;;19.00;17.20;;;;;;;16.32;54.47;99730.84;108954;1269;22153;-77
2022/10/01 12:08:20;;;;;;;20.20;17.90;;;;;;;16.22;54.49;99734.14;108442;1276;21981;-77
2022/10/01 12:11:05;;;;;;;17.60;15.80;;;;;;;16.13;54.58;99729.56;108491;1273;22098;-78
2022/10/01 12:14:02;;;;;;;18.00;16.20;;;;;;;16.10;54.86;99726.57;108851;1270;23055;-77
2022/10/01 12:17:26;;;;;;;18.90;17.20;;;;;;;16.12;54.97;99724.29;108898;1270;22042;-78
2022/10/01 12:20:17;;;;;;;18.40;16.70;;;;;;;16.09;55.13;99725.83;108455;1276;21992;-76
2022/10/01 12:22:52;;;;;;;18.90;16.10;;;;;;;16.09;55.02;99722.09;108405;1273;23699;-77
2022/10/01 12:25:47;;;;;;;15.30;13.80;;;;;;;16.09;54.97;99718.02;108782;1268;22389;-76
2022/10/01 12:28:46;;;;;;;37.90;34.00;;;;;;;16.03;54.77;99714.08;109154;1264;22011;-76
2022/10/01 12:32:17;;;;;;;22.50;19.90;;;;;;;15.90;54.87;99704.44;109604;1264;21984;-77
2022/10/01 12:35:46;;;;;;;26.90;20.70;;;;;;;15.84;55.20;99702.80;109537;1261;23924;-78
2022/10/01 12:38:57;;;;;;;17.40;15.60;;;;;;;15.80;55.47;99701.31;109443;1263;23725;-77
2022/10/01 12:42:18;;;;;;;16.10;14.60;;;;;;;15.78;55.44;99698.81;109557;1263;21985;-77
2022/10/01 12:45:08;;;;;;;20.40;15.60;;;;;;;15.75;55.67;99697.80;109488;1266;23606;-77
2022/10/01 12:48:19;;;;;;;19.30;16.00;;;;;;;15.76;55.85;99694.22;109165;1267;22202;-78
2022/10/01 12:51:30;;;;;;;16.30;14.50;;;;;;;15.73;55.97;99687.21;108686;1273;22909;-77
2022/10/01 12:54:36;;;;;;;15.30;13.70;;;;;;;15.70;56.16;99682.71;108880;1266;22055;-77
2022/10/01 12:57:20;;;;;;;16.70;15.20;;;;;;;15.71;56.44;99678.39;108904;1268;21985;-78
2022/10/01 13:00:23;;;;;;;16.80;15.20;;;;;;;15.73;56.43;99674.59;109107;1267;21994;-78
2022/10/01 13:03:10;;;;;;;19.60;15.60;;;;;;;15.70;56.54;99671.77;109098;1267;22045;-77
2022/10/01 13:06:24;;;;;;;20.10;18.30;;;;;;;15.71;56.75;99669.44;109468;1261;22048;-78
2022/10/01 13:09:33;;;;;;;16.90;15.20;;;;;;;15.75;57.02;99667.27;110202;1255;22027;-80
2022/10/01 13:12:47;;;;;;;18.30;15.10;;;;;;;15.70;57.07;99664.79;110692;1255;21962;-78
2022/10/01 13:15:30;;;;;;;17.30;15.70;;;;;;;15.67;57.34;99663.96;110344;1255;21979;-77
2022/10/01 13:18:27;;;;;;;20.10;18.00;;;;;;;15.67;57.41;99660.12;110199;1256;23695;-80
2022/10/01 13:21:11;;;;;;;19.60;17.70;;;;;;;15.68;57.67;99653.90;110451;1255;21957;-78
2022/10/01 13:24:00;;;;;;;21.40;19.00;;;;;;;15.70;57.64;99652.70;110322;1257;22227;-78
2022/10/01 13:26:58;;;;;;;20.40;18.40;;;;;;;15.68;57.55;99649.30;110064;1255;23675;-80
2022/10/01 13:30:00;;;;;;;24.80;18.50;;;;;;;15.69;57.88;99645.37;110133;1256;21971;-78
2022/10/01 13:32:59;;;;;;;17.60;16.00;;;;;;;15.71;57.91;99640.50;110215;1258;22072;-78
2022/10/01 13:35:39;;;;;;;17.70;15.30;;;;;;;15.74;58.02;99635.44;110571;1256;23823;-77
2022/10/01 13:38:29;;;;;;;17.00;15.30;;;;;;;15.77;57.89;99631.00;110328;1256;21972;-77
2022/10/01 13:41:06;;;;;;;17.30;15.60;;;;;;;15.81;57.86;99628.60;110014;1259;22046;-78
2022/10/01 13:43:35;;;;;;;16.00;13.80;;;;;;;15.82;57.86;99621.21;110190;1256;22738;-77
2022/10/01 13:46:10;;;;;;;17.30;15.20;;;;;;;15.85;57.71;99612.38;110471;1256;23854;-77
2022/10/01 13:48:50;;;;;;;13.90;12.50;;;;;;;15.88;57.60;99606.88;109719;1261;23851;-77
2022/10/01 13:51:19;;;;;;;14.60;13.20;;;;;;;15.85;57.28;99611.66;109623;1262;22037;-77
2022/10/01 13:54:01;;;;;;;13.80;12.40;;;;;;;15.84;57.24;99609.08;109906;1260;22447;-77
2022/10/01 13:56:36;;;;;;;15.00;13.50;;;;;;;15.87;57.48;99605.74;109348;1262;22098;-76
2022/10/01 13:59:38;;;;;;;15.30;13.70;;;;;;;15.88;57.47;99607.56;109553;1262;22041;-78
2022/10/01 14:02:57;;;;;;;15.40;12.70;;;;;;;15.87;57.46;99602.55;108924;1267;22440;-78
2022/10/01 14:05:41;;;;;;;17.90;13.80;;;;;;;15.85;57.41;99600.42;108706;1273;23617;-78
2022/10/01 14:08:33;;;;;;;14.50;13.20;;;;;;;15.84;57.57;99595.40;109688;1262;23156;-77
2022/10/01 14:17:11;;;;;;;19.00;15.70;;;;;;;15.79;57.77;99582.98;109771;1262;23059;-77
2022/10/01 14:19:45;;;;;;;24.20;15.90;;;;;;;15.77;57.99;99583.65;109098;1267;24324;-78
2022/10/01 14:22:40;;;;;;;16.40;12.50;;;;;;;15.76;58.22;99579.80;109152;1267;21981;-78
2022/10/01 14:25:22;;;;;;;14.50;13.00;;;;;;;15.75;58.35;99577.42;109063;1268;23171;-78
2022/10/01 14:28:09;;;;;;;;;;;;;;;15.74;58.54;99572.81;108772;1271;22008;-76
2022/10/01 14:31:28;;;;;;;14.80;13.20;;;;;;;15.62;58.80;99569.56;108570;1276;23025;-78
2022/10/01 14:34:15;;;;;;;14.60;12.30;;;;;;;15.60;58.93;99565.84;108695;1276;22225;-79
2022/10/01 14:36:49;;;;;;;16.20;14.00;;;;;;;15.59;58.97;99565.56;108462;1276;22946;-79
2022/10/01 14:39:25;;;;;;;15.50;13.80;;;;;;;15.59;58.96;99562.61;108820;1267;22108;-77
2022/10/01 14:41:57;;;;;;;14.60;13.10;;;;;;;15.56;59.03;99559.80;109767;1259;21971;-78
2022/10/01 14:44:40;;;;;;;14.70;13.20;;;;;;;15.56;59.15;99558.42;109555;1260;21995;-81
2022/10/01 14:47:24;;;;;;;14.40;12.60;;;;;;;15.55;59.22;99554.84;110144;1255;23676;-78
2022/10/01 14:49:56;;;;;;;19.00;16.20;;;;;;;15.55;59.36;99554.44;110757;1253;22417;-78
2022/10/01 14:52:31;;;;;;;32.80;29.40;;;;;;;15.56;59.37;99552.83;110359;1254;22221;-77